Aransas — WDC2630 — position and weather

sailwx.info

Track history (hours):
 
Tides and Currents Weather Stations Pressure Air Temp Water Temp Dewpoint Dewpoint Depression Visibility Wind Speed Wind Dir Waves Ship Positions

Aransas

Owner: Kirby Inland Marine LP, Houston, TX. More information available from US FCC via Universal Licensing System and Coast Guard Vessel Documentation Center.

Last reported at 2017-Dec-11 05:43 UTC. Time now 2017-Dec-13 22:16 UTC.
Position N 29°43' W 095°01'.

Length 77 m; draft 2.6 m.

Type: . MMSI: 366995780.

Date/timePositionNaut miles runAvg speedWind from/ knotsBaromVisibWave heightAir tempDewpointWater temp
2017-Dec-11 05:43N 29°43' W 095°01'2 7.2
2017-Dec-11 05:29N 29°44' W 095°02'3 1.1
2017-Dec-11 02:35N 29°46' W 095°05'1 2.9
2017-Dec-11 02:15N 29°45' W 095°06'0 0.0
2017-Dec-11 01:45N 29°45' W 095°06'2 0.2
2017-Dec-10 16:22N 29°46' W 095°05'4 7.8
2017-Dec-10 15:53N 29°44' W 095°09'2 3.3
2017-Dec-10 15:22N 29°45' W 095°10'0 0.1
2017-Dec-10 15:00N 29°45' W 095°10'1 1.4
2017-Dec-10 14:06N 29°44' W 095°09'1 5.7
2017-Dec-10 13:57N 29°44' W 095°08'2 5.5
2017-Dec-10 13:30N 29°45' W 095°06'1 0.7
2017-Dec-10 12:35N 29°46' W 095°06'0 2.1
2017-Dec-10 12:28N 29°46' W 095°05'1 2.5
2017-Dec-10 11:57N 29°45' W 095°06'0 0.1
2017-Dec-10 11:25N 29°45' W 095°06'3 1.8
2017-Dec-10 09:45N 29°47' W 095°04'0 1.0
2017-Dec-10 09:20N 29°47' W 095°04'5 4.6
2017-Dec-10 08:14N 29°43' W 095°01'2 5.7
2017-Dec-10 07:54N 29°42' W 094°59'3 6.7
2017-Dec-10 07:30N 29°39' W 094°58'2 4.6
2017-Dec-10 07:00N 29°37' W 094°58'3 5.4
2017-Dec-10 06:30N 29°37' W 095°01'0 0.1
2017-Dec-10 06:00N 29°37' W 095°01'0 0.0
2017-Dec-09 15:05N 29°37' W 095°02'0 0.0
2017-Dec-09 13:14N 29°37' W 095°02'0 0.0
2017-Dec-09 11:20N 29°37' W 095°02'0 0.0
2017-Dec-09 11:00N 29°37' W 095°02'0 0.1
2017-Dec-09 10:31N 29°37' W 095°01'0 0.0
2017-Dec-09 10:00N 29°37' W 095°01'2 4.0
2017-Dec-09 09:31N 29°37' W 094°59'3 5.1
2017-Dec-09 09:00N 29°39' W 094°58'4 7.1
2017-Dec-09 08:30N 29°42' W 095°01'4 6.9
2017-Dec-09 07:58N 29°45' W 095°04'2 4.7
2017-Dec-09 07:27N 29°47' W 095°04'0 0.1
2017-Dec-09 07:00N 29°47' W 095°04'5 0.8
2017-Dec-09 00:47N 29°43' W 095°01'5 0.7
2017-Dec-08 17:54N 29°42' W 094°56'2 2.3
2017-Dec-08 17:10N 29°40' W 094°56'2 4.7
2017-Dec-08 16:46N 29°41' W 094°58'1 4.6
2017-Dec-08 16:30N 29°41' W 094°59'7 3.1
2017-Dec-08 14:18N 29°46' W 095°06'0 0.0
2017-Dec-08 05:46N 29°46' W 095°05'1 0.0
2017-Dec-07 11:50N 29°46' W 095°05'1 0.1
2017-Dec-07 04:17N 29°47' W 095°04'2 4.3
2017-Dec-07 03:54N 29°46' W 095°05'3 5.5
2017-Dec-07 03:23N 29°44' W 095°08'2 3.0
2017-Dec-07 02:46N 29°45' W 095°10'1 2.3
2017-Dec-07 02:27N 29°45' W 095°11'0 0.4
2017-Dec-07 02:00N 29°46' W 095°11'1 0.8
2017-Dec-07 00:50N 29°45' W 095°10'1 3.1
2017-Dec-07 00:27N 29°44' W 095°09'  
2017-Dec-04 09:52N 29°44' W 095°09'0 0.0
2017-Dec-04 09:30N 29°44' W 095°09'0 0.0
2017-Dec-04 09:00N 29°44' W 095°09'0 0.0
2017-Dec-04 08:30N 29°44' W 095°09'0 0.0
2017-Dec-04 08:00N 29°44' W 095°09'0 0.0
2017-Dec-04 07:30N 29°44' W 095°09'0 0.0
2017-Dec-04 07:00N 29°44' W 095°09'0 0.0
2017-Dec-04 06:30N 29°44' W 095°09'0 0.0
2017-Dec-04 05:52N 29°44' W 095°09'0 0.0
2017-Dec-04 05:28N 29°44' W 095°09'0 0.3
2017-Dec-04 05:00N 29°44' W 095°09'6 1.6
2017-Dec-04 01:28N 29°48' W 095°04'2 3.4
2017-Dec-04 00:58N 29°46' W 095°05'1 1.6
2017-Dec-04 00:19N 29°45' W 095°06'1 0.4
2017-Dec-03 21:46N 29°46' W 095°05'1 0.4
2017-Dec-03 19:01N 29°47' W 095°04'0 2.0
2017-Dec-03 19:00N 29°47' W 095°05'2 0.2
2017-Dec-03 09:47N 29°45' W 095°06'0 0.0
2017-Dec-03 09:26N 29°45' W 095°06'0 0.0
2017-Dec-03 08:53N 29°45' W 095°06'0 0.1
2017-Dec-03 07:14N 29°45' W 095°06'0 0.0
2017-Dec-03 06:52N 29°45' W 095°06'0 0.0
2017-Dec-03 06:25N 29°45' W 095°06'0 0.0
2017-Dec-03 05:59N 29°45' W 095°06'0 0.0
2017-Dec-03 05:30N 29°45' W 095°06'0 0.0
2017-Dec-03 05:00N 29°45' W 095°06'0 0.1
2017-Dec-03 04:02N 29°45' W 095°06'0 1.9
2017-Dec-03 04:00N 29°45' W 095°06'0 0.0
2017-Dec-03 03:23N 29°45' W 095°06'0 0.0
2017-Dec-03 03:00N 29°45' W 095°06'0 0.0
2017-Dec-03 02:30N 29°45' W 095°06'2 0.5
2017-Dec-02 22:27N 29°47' W 095°04'2 4.0
2017-Dec-02 22:00N 29°45' W 095°06'0 0.1
2017-Dec-02 16:16N 29°46' W 095°05'1 0.1
2017-Dec-02 06:30N 29°45' W 095°06'0 0.0
2017-Dec-02 06:00N 29°45' W 095°06'0 0.0
2017-Dec-02 05:30N 29°45' W 095°06'5 1.0
2017-Dec-02 01:02N 29°43' W 095°01'0 8.7
2017-Dec-02 00:59N 29°43' W 095°01'5 7.4
2017-Dec-02 00:23N 29°39' W 094°58'2 5.8
2017-Dec-02 00:00N 29°37' W 094°58'3 5.5
2017-Dec-01 23:30N 29°37' W 095°01'0 0.0
2017-Dec-01 23:00N 29°37' W 095°01'0 0.0
2017-Dec-01 22:30N 29°37' W 095°01'0 0.0
2017-Dec-01 22:00N 29°37' W 095°01'0 0.0
2017-Dec-01 21:29N 29°37' W 095°01'0 0.0
2017-Dec-01 21:00N 29°37' W 095°01'0 0.0
2017-Dec-01 20:30N 29°37' W 095°01'0 0.0
2017-Dec-01 20:00N 29°37' W 095°01'0 0.0
2017-Dec-01 19:30N 29°37' W 095°01'0 0.0
2017-Dec-01 19:00N 29°37' W 095°01'0 0.0
2017-Dec-01 18:30N 29°37' W 095°01'0 0.0
2017-Dec-01 17:56N 29°37' W 095°01'0 0.0
2017-Dec-01 17:30N 29°37' W 095°01'0 0.0
2017-Dec-01 17:00N 29°37' W 095°01'0 0.0
2017-Dec-01 16:30N 29°37' W 095°01'0 0.0
2017-Dec-01 16:00N 29°37' W 095°01'0 0.0
2017-Dec-01 15:30N 29°37' W 095°01'0 0.0
2017-Dec-01 15:00N 29°37' W 095°01'0 0.0
2017-Dec-01 14:30N 29°37' W 095°01'0 0.0
2017-Dec-01 14:00N 29°37' W 095°01'0 0.0
2017-Dec-01 13:31N 29°37' W 095°01'0 0.0
2017-Dec-01 13:01N 29°37' W 095°01'0 0.0
2017-Dec-01 12:30N 29°37' W 095°01'3 6.0
2017-Dec-01 11:56N 29°37' W 094°58'3 8.2
2017-Dec-01 11:30N 29°40' W 094°59'  
Track history (hours):
 
Tides and Currents Weather Stations Pressure Air Temp Water Temp Dewpoint Dewpoint Depression Visibility Wind Speed Wind Dir Waves Ship Positions

Aransas

Owner: Kirby Inland Marine LP, Houston, TX. More information available from US FCC via Universal Licensing System and Coast Guard Vessel Documentation Center.

Last reported at 2017-Dec-11 05:43 UTC. Time now 2017-Dec-13 22:16 UTC.
Position N 29°43' W 095°01'.

Length 77 m; draft 2.6 m.

Type: . MMSI: 366995780.

Date/timePositionNaut miles runAvg speedWind from/ knotsBaromVisibWave heightAir tempDewpointWater temp
2017-Dec-11 05:43N 29°43' W 095°01'2 7.2
2017-Dec-11 05:29N 29°44' W 095°02'3 1.1
2017-Dec-11 02:35N 29°46' W 095°05'1 2.9
2017-Dec-11 02:15N 29°45' W 095°06'0 0.0
2017-Dec-11 01:45N 29°45' W 095°06'2 0.2
2017-Dec-10 16:22N 29°46' W 095°05'4 7.8
2017-Dec-10 15:53N 29°44' W 095°09'2 3.3
2017-Dec-10 15:22N 29°45' W 095°10'0 0.1
2017-Dec-10 15:00N 29°45' W 095°10'1 1.4
2017-Dec-10 14:06N 29°44' W 095°09'1 5.7
2017-Dec-10 13:57N 29°44' W 095°08'2 5.5
2017-Dec-10 13:30N 29°45' W 095°06'1 0.7
2017-Dec-10 12:35N 29°46' W 095°06'0 2.1
2017-Dec-10 12:28N 29°46' W 095°05'1 2.5
2017-Dec-10 11:57N 29°45' W 095°06'0 0.1
2017-Dec-10 11:25N 29°45' W 095°06'3 1.8
2017-Dec-10 09:45N 29°47' W 095°04'0 1.0
2017-Dec-10 09:20N 29°47' W 095°04'5 4.6
2017-Dec-10 08:14N 29°43' W 095°01'2 5.7
2017-Dec-10 07:54N 29°42' W 094°59'3 6.7
2017-Dec-10 07:30N 29°39' W 094°58'2 4.6
2017-Dec-10 07:00N 29°37' W 094°58'3 5.4
2017-Dec-10 06:30N 29°37' W 095°01'0 0.1
2017-Dec-10 06:00N 29°37' W 095°01'0 0.0
2017-Dec-09 15:05N 29°37' W 095°02'0 0.0
2017-Dec-09 13:14N 29°37' W 095°02'0 0.0
2017-Dec-09 11:20N 29°37' W 095°02'0 0.0
2017-Dec-09 11:00N 29°37' W 095°02'0 0.1
2017-Dec-09 10:31N 29°37' W 095°01'0 0.0
2017-Dec-09 10:00N 29°37' W 095°01'2 4.0
2017-Dec-09 09:31N 29°37' W 094°59'3 5.1
2017-Dec-09 09:00N 29°39' W 094°58'4 7.1
2017-Dec-09 08:30N 29°42' W 095°01'4 6.9
2017-Dec-09 07:58N 29°45' W 095°04'2 4.7
2017-Dec-09 07:27N 29°47' W 095°04'0 0.1
2017-Dec-09 07:00N 29°47' W 095°04'5 0.8
2017-Dec-09 00:47N 29°43' W 095°01'5 0.7
2017-Dec-08 17:54N 29°42' W 094°56'2 2.3
2017-Dec-08 17:10N 29°40' W 094°56'2 4.7
2017-Dec-08 16:46N 29°41' W 094°58'1 4.6
2017-Dec-08 16:30N 29°41' W 094°59'7 3.1
2017-Dec-08 14:18N 29°46' W 095°06'0 0.0
2017-Dec-08 05:46N 29°46' W 095°05'1 0.0
2017-Dec-07 11:50N 29°46' W 095°05'1 0.1
2017-Dec-07 04:17N 29°47' W 095°04'2 4.3
2017-Dec-07 03:54N 29°46' W 095°05'3 5.5
2017-Dec-07 03:23N 29°44' W 095°08'2 3.0
2017-Dec-07 02:46N 29°45' W 095°10'1 2.3
2017-Dec-07 02:27N 29°45' W 095°11'0 0.4
2017-Dec-07 02:00N 29°46' W 095°11'1 0.8
2017-Dec-07 00:50N 29°45' W 095°10'1 3.1
2017-Dec-07 00:27N 29°44' W 095°09'  
2017-Dec-04 09:52N 29°44' W 095°09'0 0.0
2017-Dec-04 09:30N 29°44' W 095°09'0 0.0
2017-Dec-04 09:00N 29°44' W 095°09'0 0.0
2017-Dec-04 08:30N 29°44' W 095°09'0 0.0
2017-Dec-04 08:00N 29°44' W 095°09'0 0.0
2017-Dec-04 07:30N 29°44' W 095°09'0 0.0
2017-Dec-04 07:00N 29°44' W 095°09'0 0.0
2017-Dec-04 06:30N 29°44' W 095°09'0 0.0
2017-Dec-04 05:52N 29°44' W 095°09'0 0.0
2017-Dec-04 05:28N 29°44' W 095°09'0 0.3
2017-Dec-04 05:00N 29°44' W 095°09'6 1.6
2017-Dec-04 01:28N 29°48' W 095°04'2 3.4
2017-Dec-04 00:58N 29°46' W 095°05'1 1.6
2017-Dec-04 00:19N 29°45' W 095°06'1 0.4
2017-Dec-03 21:46N 29°46' W 095°05'1 0.4
2017-Dec-03 19:01N 29°47' W 095°04'0 2.0
2017-Dec-03 19:00N 29°47' W 095°05'2 0.2
2017-Dec-03 09:47N 29°45' W 095°06'0 0.0
2017-Dec-03 09:26N 29°45' W 095°06'0 0.0
2017-Dec-03 08:53N 29°45' W 095°06'0 0.1
2017-Dec-03 07:14N 29°45' W 095°06'0 0.0
2017-Dec-03 06:52N 29°45' W 095°06'0 0.0
2017-Dec-03 06:25N 29°45' W 095°06'0 0.0
2017-Dec-03 05:59N 29°45' W 095°06'0 0.0
2017-Dec-03 05:30N 29°45' W 095°06'0 0.0
2017-Dec-03 05:00N 29°45' W 095°06'0 0.1
2017-Dec-03 04:02N 29°45' W 095°06'0 1.9
2017-Dec-03 04:00N 29°45' W 095°06'0 0.0
2017-Dec-03 03:23N 29°45' W 095°06'0 0.0
2017-Dec-03 03:00N 29°45' W 095°06'0 0.0
2017-Dec-03 02:30N 29°45' W 095°06'2 0.5
2017-Dec-02 22:27N 29°47' W 095°04'2 4.0
2017-Dec-02 22:00N 29°45' W 095°06'0 0.1
2017-Dec-02 16:16N 29°46' W 095°05'1 0.1
2017-Dec-02 06:30N 29°45' W 095°06'0 0.0
2017-Dec-02 06:00N 29°45' W 095°06'0 0.0
2017-Dec-02 05:30N 29°45' W 095°06'5 1.0
2017-Dec-02 01:02N 29°43' W 095°01'0 8.7
2017-Dec-02 00:59N 29°43' W 095°01'5 7.4
2017-Dec-02 00:23N 29°39' W 094°58'2 5.8
2017-Dec-02 00:00N 29°37' W 094°58'3 5.5
2017-Dec-01 23:30N 29°37' W 095°01'0 0.0
2017-Dec-01 23:00N 29°37' W 095°01'0 0.0
2017-Dec-01 22:30N 29°37' W 095°01'0 0.0
2017-Dec-01 22:00N 29°37' W 095°01'0 0.0
2017-Dec-01 21:29N 29°37' W 095°01'0 0.0
2017-Dec-01 21:00N 29°37' W 095°01'0 0.0
2017-Dec-01 20:30N 29°37' W 095°01'0 0.0
2017-Dec-01 20:00N 29°37' W 095°01'0 0.0
2017-Dec-01 19:30N 29°37' W 095°01'0 0.0
2017-Dec-01 19:00N 29°37' W 095°01'0 0.0
2017-Dec-01 18:30N 29°37' W 095°01'0 0.0
2017-Dec-01 17:56N 29°37' W 095°01'0 0.0
2017-Dec-01 17:30N 29°37' W 095°01'0 0.0
2017-Dec-01 17:00N 29°37' W 095°01'0 0.0
2017-Dec-01 16:30N 29°37' W 095°01'0 0.0
2017-Dec-01 16:00N 29°37' W 095°01'0 0.0
2017-Dec-01 15:30N 29°37' W 095°01'0 0.0
2017-Dec-01 15:00N 29°37' W 095°01'0 0.0
2017-Dec-01 14:30N 29°37' W 095°01'0 0.0
2017-Dec-01 14:00N 29°37' W 095°01'0 0.0
2017-Dec-01 13:31N 29°37' W 095°01'0 0.0
2017-Dec-01 13:01N 29°37' W 095°01'0 0.0
2017-Dec-01 12:30N 29°37' W 095°01'3 6.0
2017-Dec-01 11:56N 29°37' W 094°58'3 8.2
2017-Dec-01 11:30N 29°40' W 094°59'  

Dump ship's entire track history